Odem, Texas
Current Conditions -  °F | °C
As of 6:51 PM on Wednesday 17 Dec 2014 (Local Time) from KCRP Reporting Station
Overcast Overcast  
Wind Chill: 69°   Ceiling: 20000
Heat Index: 69°   Visibility: 10mi
Dew Point: 65°   Wind: 10mph
Humidity: 87%   Direction: 160°SSE
Pressure: 30.02"   Gusts: NA
Location:  27.95°N, 97.58°W
Report Text: KCRP 180051Z 16009KT 10SM FEW018 FEW033 SCT080 BKN200 OVC250 21/18 A3002 RMK AO2 SLP165 T02060183
Loading
Personal Weather Stations






























Interactive Weather Map New forecast layout! Learn more

10-Day Weather Forecast

Advertisements
Track Severe Weather on mobile